sensor_id;sensor_type;location;lat;lon;timestamp;pressure;altitude;pressure_sealevel;temperature;humidity
61537;BME280;48695;53.480;-6.300;2023-07-13T00:01:04;100719.28;;;17.57;54.87
61537;BME280;48695;53.480;-6.300;2023-07-13T00:03:31;100737.69;;;17.59;54.41
61537;BME280;48695;53.480;-6.300;2023-07-13T00:06:01;100730.06;;;17.53;54.63
61537;BME280;48695;53.480;-6.300;2023-07-13T00:08:30;100735.56;;;17.48;54.14
61537;BME280;48695;53.480;-6.300;2023-07-13T00:10:57;100728.19;;;17.37;54.57
61537;BME280;48695;53.480;-6.300;2023-07-13T00:13:23;100730.94;;;17.36;54.67
61537;BME280;48695;53.480;-6.300;2023-07-13T00:15:48;100727.75;;;17.29;54.88
61537;BME280;48695;53.480;-6.300;2023-07-13T00:18:14;100727.13;;;17.24;54.53
61537;BME280;48695;53.480;-6.300;2023-07-13T00:20:40;100726.50;;;17.19;54.92
61537;BME280;48695;53.480;-6.300;2023-07-13T00:23:07;100724.16;;;17.13;55.05
61537;BME280;48695;53.480;-6.300;2023-07-13T00:25:32;100738.44;;;17.09;55.18
61537;BME280;48695;53.480;-6.300;2023-07-13T00:27:58;100733.31;;;17.06;55.05
61537;BME280;48695;53.480;-6.300;2023-07-13T00:30:23;100731.91;;;16.99;54.91
61537;BME280;48695;53.480;-6.300;2023-07-13T00:32:49;100727.72;;;16.95;55.27
61537;BME280;48695;53.480;-6.300;2023-07-13T00:35:15;100740.19;;;16.91;55.08
61537;BME280;48695;53.480;-6.300;2023-07-13T00:37:41;100733.41;;;16.85;55.56
61537;BME280;48695;53.480;-6.300;2023-07-13T00:40:07;100737.13;;;16.81;55.27
61537;BME280;48695;53.480;-6.300;2023-07-13T00:42:34;100731.09;;;16.79;53.84
61537;BME280;48695;53.480;-6.300;2023-07-13T00:47:38;100735.84;;;16.71;55.55
61537;BME280;48695;53.480;-6.300;2023-07-13T00:50:07;100735.91;;;16.70;55.65
61537;BME280;48695;53.480;-6.300;2023-07-13T00:52:35;100738.75;;;16.65;55.92
61537;BME280;48695;53.480;-6.300;2023-07-13T00:55:02;100743.19;;;16.65;56.03
61537;BME280;48695;53.480;-6.300;2023-07-13T00:57:28;100733.78;;;16.59;55.81
61537;BME280;48695;53.480;-6.300;2023-07-13T00:59:57;100736.41;;;16.59;56.00
61537;BME280;48695;53.480;-6.300;2023-07-13T01:02:24;100744.34;;;16.59;55.99
61537;BME280;48695;53.480;-6.300;2023-07-13T01:04:51;100737.34;;;16.58;56.31
61537;BME280;48695;53.480;-6.300;2023-07-13T01:07:17;100726.38;;;16.48;56.12
61537;BME280;48695;53.480;-6.300;2023-07-13T01:09:44;100740.13;;;16.55;56.62
61537;BME280;48695;53.480;-6.300;2023-07-13T01:12:10;100738.41;;;16.54;56.11
61537;BME280;48695;53.480;-6.300;2023-07-13T01:14:36;100730.63;;;16.51;56.31
61537;BME280;48695;53.480;-6.300;2023-07-13T01:17:02;100721.44;;;16.41;56.23
61537;BME280;48695;53.480;-6.300;2023-07-13T01:22:08;100738.72;;;16.48;56.31
61537;BME280;48695;53.480;-6.300;2023-07-13T01:24:36;100712.97;;;16.34;56.67
61537;BME280;48695;53.480;-6.300;2023-07-13T01:27:02;100724.09;;;16.41;56.23
61537;BME280;48695;53.480;-6.300;2023-07-13T01:29:28;100736.19;;;16.45;56.80
61537;BME280;48695;53.480;-6.300;2023-07-13T01:31:53;100727.53;;;16.43;56.58
61537;BME280;48695;53.480;-6.300;2023-07-13T01:34:18;100729.34;;;16.41;56.83
61537;BME280;48695;53.480;-6.300;2023-07-13T01:36:44;100732.94;;;16.40;56.74
61537;BME280;48695;53.480;-6.300;2023-07-13T01:39:09;100725.09;;;16.38;56.77
61537;BME280;48695;53.480;-6.300;2023-07-13T01:41:35;100723.38;;;16.37;57.12
61537;BME280;48695;53.480;-6.300;2023-07-13T01:44:00;100726.00;;;16.37;57.44
61537;BME280;48695;53.480;-6.300;2023-07-13T01:46:25;100726.09;;;16.35;57.59
61537;BME280;48695;53.480;-6.300;2023-07-13T01:48:51;100727.78;;;16.37;57.48
61537;BME280;48695;53.480;-6.300;2023-07-13T01:51:17;100720.81;;;16.35;57.59
61537;BME280;48695;53.480;-6.300;2023-07-13T01:53:43;100722.69;;;16.33;57.49
61537;BME280;48695;53.480;-6.300;2023-07-13T01:56:08;100717.53;;;16.30;57.33
61537;BME280;48695;53.480;-6.300;2023-07-13T01:58:34;100724.50;;;16.31;57.21
61537;BME280;48695;53.480;-6.300;2023-07-13T02:00:59;100720.34;;;16.27;57.63
61537;BME280;48695;53.480;-6.300;2023-07-13T02:03:25;100719.41;;;16.28;57.47
61537;BME280;48695;53.480;-6.300;2023-07-13T02:05:50;100730.88;;;16.27;57.43
61537;BME280;48695;53.480;-6.300;2023-07-13T02:08:15;100724.78;;;16.25;57.93
61537;BME280;48695;53.480;-6.300;2023-07-13T02:10:41;100723.09;;;16.24;57.55
61537;BME280;48695;53.480;-6.300;2023-07-13T02:13:07;100710.00;;;16.23;57.67
61537;BME280;48695;53.480;-6.300;2023-07-13T02:15:32;100709.19;;;16.21;58.02
61537;BME280;48695;53.480;-6.300;2023-07-13T02:17:58;100713.63;;;16.20;58.19
61537;BME280;48695;53.480;-6.300;2023-07-13T02:20:24;100719.72;;;16.21;58.13
61537;BME280;48695;53.480;-6.300;2023-07-13T02:22:49;100712.69;;;16.21;58.17
61537;BME280;48695;53.480;-6.300;2023-07-13T02:25:15;100717.94;;;16.21;57.81
61537;BME280;48695;53.480;-6.300;2023-07-13T02:27:40;100714.53;;;16.19;57.91
61537;BME280;48695;53.480;-6.300;2023-07-13T02:30:06;100696.69;;;16.07;58.10
61537;BME280;48695;53.480;-6.300;2023-07-13T02:32:32;100718.97;;;16.19;57.95
61537;BME280;48695;53.480;-6.300;2023-07-13T02:34:59;100718.09;;;16.18;58.28
61537;BME280;48695;53.480;-6.300;2023-07-13T02:37:24;100712.84;;;16.18;58.12
61537;BME280;48695;53.480;-6.300;2023-07-13T02:39:50;100721.59;;;16.19;58.59
61537;BME280;48695;53.480;-6.300;2023-07-13T02:42:15;100721.69;;;16.17;58.30
61537;BME280;48695;53.480;-6.300;2023-07-13T02:44:40;100716.41;;;16.17;58.20
61537;BME280;48695;53.480;-6.300;2023-07-13T02:47:06;100722.66;;;16.15;58.33
61537;BME280;48695;53.480;-6.300;2023-07-13T02:49:32;100731.41;;;16.15;58.65
61537;BME280;48695;53.480;-6.300;2023-07-13T02:51:57;100730.75;;;16.10;58.50
61537;BME280;48695;53.480;-6.300;2023-07-13T02:54:22;100711.84;;;16.02;58.67
61537;BME280;48695;53.480;-6.300;2023-07-13T02:56:48;100728.94;;;16.12;58.92
61537;BME280;48695;53.480;-6.300;2023-07-13T02:59:14;100730.63;;;16.13;58.98
61537;BME280;48695;53.480;-6.300;2023-07-13T03:01:39;100727.19;;;16.11;59.35
61537;BME280;48695;53.480;-6.300;2023-07-13T03:04:05;100723.91;;;16.06;59.12
61537;BME280;48695;53.480;-6.300;2023-07-13T03:06:32;100725.50;;;16.10;59.03
61537;BME280;48695;53.480;-6.300;2023-07-13T03:08:57;100729.06;;;16.09;59.80
61537;BME280;48695;53.480;-6.300;2023-07-13T03:11:22;100730.00;;;16.08;59.80
61537;BME280;48695;53.480;-6.300;2023-07-13T03:13:48;100725.66;;;16.07;59.81
61537;BME280;48695;53.480;-6.300;2023-07-13T03:16:14;100730.00;;;16.08;59.34
61537;BME280;48695;53.480;-6.300;2023-07-13T03:18:41;100723.91;;;16.06;59.88
61537;BME280;48695;53.480;-6.300;2023-07-13T03:21:07;100716.94;;;16.05;59.61
61537;BME280;48695;53.480;-6.300;2023-07-13T03:23:32;100716.09;;;16.04;59.78
61537;BME280;48695;53.480;-6.300;2023-07-13T03:26:18;100724.75;;;16.06;58.60
61537;BME280;48695;53.480;-6.300;2023-07-13T03:28:44;100724.13;;;16.01;59.57
61537;BME280;48695;53.480;-6.300;2023-07-13T03:31:17;100718.00;;;16.01;59.24
61537;BME280;48695;53.480;-6.300;2023-07-13T03:33:44;100723.41;;;15.98;59.58
61537;BME280;48695;53.480;-6.300;2023-07-13T03:36:23;100724.28;;;15.98;59.41
61537;BME280;48695;53.480;-6.300;2023-07-13T03:38:50;100724.47;;;15.94;59.77
61537;BME280;48695;53.480;-6.300;2023-07-13T03:41:16;100727.88;;;15.96;58.02
61537;BME280;48695;53.480;-6.300;2023-07-13T03:43:42;100702.22;;;15.80;59.80
61537;BME280;48695;53.480;-6.300;2023-07-13T03:46:08;100724.59;;;15.91;60.26
61537;BME280;48695;53.480;-6.300;2023-07-13T03:48:34;100726.47;;;15.89;60.03
61537;BME280;48695;53.480;-6.300;2023-07-13T03:50:59;100723.91;;;15.87;60.09
61537;BME280;48695;53.480;-6.300;2023-07-13T03:53:25;100730.06;;;15.86;60.49
61537;BME280;48695;53.480;-6.300;2023-07-13T03:55:50;100731.84;;;15.86;60.36
61537;BME280;48695;53.480;-6.300;2023-07-13T04:00:54;100730.16;;;15.85;60.26
61537;BME280;48695;53.480;-6.300;2023-07-13T04:03:20;100736.25;;;15.85;60.04
61537;BME280;48695;53.480;-6.300;2023-07-13T04:05:46;100738.97;;;15.83;60.71
61537;BME280;48695;53.480;-6.300;2023-07-13T04:08:12;100735.56;;;15.81;60.34
61537;BME280;48695;53.480;-6.300;2023-07-13T04:10:37;100733.81;;;15.80;60.58
61537;BME280;48695;53.480;-6.300;2023-07-13T04:13:04;100731.34;;;15.77;60.74
61537;BME280;48695;53.480;-6.300;2023-07-13T04:15:31;100715.94;;;15.68;60.46
61537;BME280;48695;53.480;-6.300;2023-07-13T04:17:56;100732.28;;;15.76;60.94
61537;BME280;48695;53.480;-6.300;2023-07-13T04:20:22;100728.84;;;15.74;60.62
61537;BME280;48695;53.480;-6.300;2023-07-13T04:22:49;100741.06;;;15.75;61.04
61537;BME280;48695;53.480;-6.300;2023-07-13T04:25:14;100736.66;;;15.76;60.79
61537;BME280;48695;53.480;-6.300;2023-07-13T04:27:40;100739.25;;;15.77;60.62
61537;BME280;48695;53.480;-6.300;2023-07-13T04:30:06;100736.63;;;15.77;60.44
61537;BME280;48695;53.480;-6.300;2023-07-13T04:32:31;100742.66;;;15.79;60.98
61537;BME280;48695;53.480;-6.300;2023-07-13T04:34:58;100754.91;;;15.80;60.95
61537;BME280;48695;53.480;-6.300;2023-07-13T04:37:25;100753.19;;;15.79;60.76
61537;BME280;48695;53.480;-6.300;2023-07-13T04:39:50;100750.56;;;15.79;61.23
61537;BME280;48695;53.480;-6.300;2023-07-13T04:42:16;100752.34;;;15.79;61.25
61537;BME280;48695;53.480;-6.300;2023-07-13T04:44:41;100754.19;;;15.77;61.25
61537;BME280;48695;53.480;-6.300;2023-07-13T04:47:07;100755.25;;;15.73;61.04
61537;BME280;48695;53.480;-6.300;2023-07-13T04:49:32;100757.81;;;15.74;60.93
61537;BME280;48695;53.480;-6.300;2023-07-13T04:51:58;100763.13;;;15.73;61.26
61537;BME280;48695;53.480;-6.300;2023-07-13T04:54:23;100757.88;;;15.73;61.28
61537;BME280;48695;53.480;-6.300;2023-07-13T04:56:49;100761.34;;;15.73;61.57
61537;BME280;48695;53.480;-6.300;2023-07-13T04:59:14;100758.72;;;15.73;61.34
61537;BME280;48695;53.480;-6.300;2023-07-13T05:01:39;100763.06;;;15.74;61.59
61537;BME280;48695;53.480;-6.300;2023-07-13T05:04:05;100744.16;;;15.65;61.59
61537;BME280;48695;53.480;-6.300;2023-07-13T05:06:31;100757.72;;;15.76;61.54
61537;BME280;48695;53.480;-6.300;2023-07-13T05:08:56;100762.94;;;15.77;61.85
61537;BME280;48695;53.480;-6.300;2023-07-13T05:11:22;100768.25;;;15.76;61.94
61537;BME280;48695;53.480;-6.300;2023-07-13T05:13:47;100746.75;;;15.66;61.60
61537;BME280;48695;53.480;-6.300;2023-07-13T05:16:13;100763.88;;;15.76;61.64
61537;BME280;48695;53.480;-6.300;2023-07-13T05:18:38;100766.56;;;15.75;61.63
61537;BME280;48695;53.480;-6.300;2023-07-13T05:21:08;100748.50;;;15.66;61.57
61537;BME280;48695;53.480;-6.300;2023-07-13T05:23:35;100768.25;;;15.76;61.84
61537;BME280;48695;53.480;-6.300;2023-07-13T05:26:01;100763.00;;;15.76;61.71
61537;BME280;48695;53.480;-6.300;2023-07-13T05:28:27;100769.13;;;15.76;61.79
61537;BME280;48695;53.480;-6.300;2023-07-13T05:30:53;100767.34;;;15.77;61.99
61537;BME280;48695;53.480;-6.300;2023-07-13T05:33:21;100763.88;;;15.76;62.39
61537;BME280;48695;53.480;-6.300;2023-07-13T05:35:47;100765.59;;;15.77;62.41
61537;BME280;48695;53.480;-6.300;2023-07-13T05:38:12;100770.69;;;15.80;62.13
61537;BME280;48695;53.480;-6.300;2023-07-13T05:40:38;100764.47;;;15.83;62.47
61537;BME280;48695;53.480;-6.300;2023-07-13T05:43:03;100768.72;;;15.86;62.37
61537;BME280;48695;53.480;-6.300;2023-07-13T05:45:29;100770.31;;;15.90;62.55
61537;BME280;48695;53.480;-6.300;2023-07-13T05:47:54;100765.75;;;15.93;62.32
61537;BME280;48695;53.480;-6.300;2023-07-13T05:50:20;100769.91;;;15.99;62.70
61537;BME280;48695;53.480;-6.300;2023-07-13T05:52:46;100777.59;;;16.03;62.47
61537;BME280;48695;53.480;-6.300;2023-07-13T05:55:11;100780.03;;;16.08;62.54
61537;BME280;48695;53.480;-6.300;2023-07-13T05:57:37;100778.91;;;16.14;62.50
61537;BME280;48695;53.480;-6.300;2023-07-13T06:00:02;100766.72;;;16.11;62.29
61537;BME280;48695;53.480;-6.300;2023-07-13T06:02:28;100782.94;;;16.22;62.80
61537;BME280;48695;53.480;-6.300;2023-07-13T06:04:53;100772.22;;;16.25;62.71
61537;BME280;48695;53.480;-6.300;2023-07-13T06:07:19;100778.16;;;16.30;62.23
61537;BME280;48695;53.480;-6.300;2023-07-13T06:09:44;100783.22;;;16.35;62.87
61537;BME280;48695;53.480;-6.300;2023-07-13T06:12:10;100783.94;;;16.39;62.81
61537;BME280;48695;53.480;-6.300;2023-07-13T06:14:35;100783.78;;;16.42;62.21
61537;BME280;48695;53.480;-6.300;2023-07-13T06:17:00;100794.19;;;16.45;62.75
61537;BME280;48695;53.480;-6.300;2023-07-13T06:19:26;100795.03;;;16.45;62.30
61537;BME280;48695;53.480;-6.300;2023-07-13T06:21:51;100798.44;;;16.47;62.63
61537;BME280;48695;53.480;-6.300;2023-07-13T06:24:17;100796.53;;;16.51;62.62
61537;BME280;48695;53.480;-6.300;2023-07-13T06:26:42;100797.28;;;16.54;62.06
61537;BME280;48695;53.480;-6.300;2023-07-13T06:29:08;100804.03;;;16.60;62.07
61537;BME280;48695;53.480;-6.300;2023-07-13T06:31:33;100795.16;;;16.63;62.72
61537;BME280;48695;53.480;-6.300;2023-07-13T06:33:58;100798.47;;;16.66;62.78
61537;BME280;48695;53.480;-6.300;2023-07-13T06:36:24;100807.06;;;16.71;62.48
61537;BME280;48695;53.480;-6.300;2023-07-13T06:38:49;100803.34;;;16.75;62.68
61537;BME280;48695;53.480;-6.300;2023-07-13T06:41:15;100801.34;;;16.80;62.41
61537;BME280;48695;53.480;-6.300;2023-07-13T06:43:40;100803.78;;;16.85;62.79
61537;BME280;48695;53.480;-6.300;2023-07-13T06:46:06;100809.63;;;16.92;62.82
61537;BME280;48695;53.480;-6.300;2023-07-13T06:48:31;100808.47;;;16.97;62.34
61537;BME280;48695;53.480;-6.300;2023-07-13T06:50:56;100804.69;;;17.03;62.11
61537;BME280;48695;53.480;-6.300;2023-07-13T06:53:22;100810.59;;;17.08;62.14
61537;BME280;48695;53.480;-6.300;2023-07-13T06:55:48;100798.50;;;17.04;62.07
61537;BME280;48695;53.480;-6.300;2023-07-13T06:58:16;100802.25;;;17.17;62.06
61537;BME280;48695;53.480;-6.300;2023-07-13T07:00:42;100806.53;;;17.20;62.30
61537;BME280;48695;53.480;-6.300;2023-07-13T07:03:07;100815.13;;;17.23;61.61
61537;BME280;48695;53.480;-6.300;2023-07-13T07:05:33;100815.00;;;17.26;61.90
61537;BME280;48695;53.480;-6.300;2023-07-13T07:07:59;100810.47;;;17.28;61.95
61537;BME280;48695;53.480;-6.300;2023-07-13T07:10:25;100801.94;;;17.23;61.49
61537;BME280;48695;53.480;-6.300;2023-07-13T07:12:50;100816.56;;;17.30;61.31
61537;BME280;48695;53.480;-6.300;2023-07-13T07:15:17;100817.31;;;17.32;61.67
61537;BME280;48695;53.480;-6.300;2023-07-13T07:17:43;100817.28;;;17.34;61.81
61537;BME280;48695;53.480;-6.300;2023-07-13T07:20:09;100821.53;;;17.36;62.40
61537;BME280;48695;53.480;-6.300;2023-07-13T07:22:35;100823.09;;;17.41;62.52
61537;BME280;48695;53.480;-6.300;2023-07-13T07:25:00;100819.28;;;17.46;61.92
61537;BME280;48695;53.480;-6.300;2023-07-13T07:27:26;100818.94;;;17.54;61.97
61537;BME280;48695;53.480;-6.300;2023-07-13T07:29:52;100821.31;;;17.58;61.78
61537;BME280;48695;53.480;-6.300;2023-07-13T07:32:19;100819.38;;;17.62;61.73
61537;BME280;48695;53.480;-6.300;2023-07-13T07:34:44;100813.03;;;17.66;61.66
61537;BME280;48695;53.480;-6.300;2023-07-13T07:37:12;100806.19;;;17.62;61.02
61537;BME280;48695;53.480;-6.300;2023-07-13T07:39:37;100811.75;;;17.75;61.17
61537;BME280;48695;53.480;-6.300;2023-07-13T07:42:03;100823.94;;;17.77;60.87
61537;BME280;48695;53.480;-6.300;2023-07-13T07:44:31;100819.28;;;17.82;60.78
61537;BME280;48695;53.480;-6.300;2023-07-13T07:46:56;100821.78;;;17.85;61.19
61537;BME280;48695;53.480;-6.300;2023-07-13T07:49:22;100825.97;;;17.89;61.31
61537;BME280;48695;53.480;-6.300;2023-07-13T07:51:47;100823.94;;;17.95;61.19
61537;BME280;48695;53.480;-6.300;2023-07-13T07:54:13;100823.63;;;18.01;61.23
61537;BME280;48695;53.480;-6.300;2023-07-13T07:56:38;100823.38;;;18.05;61.00
61537;BME280;48695;53.480;-6.300;2023-07-13T07:59:03;100826.56;;;18.12;60.82
61537;BME280;48695;53.480;-6.300;2023-07-13T08:01:29;100829.81;;;18.17;60.72
61537;BME280;48695;53.480;-6.300;2023-07-13T08:03:54;100830.44;;;18.22;60.63
61537;BME280;48695;53.480;-6.300;2023-07-13T08:06:20;100800.97;;;18.12;60.53
61537;BME280;48695;53.480;-6.300;2023-07-13T08:08:47;100828.06;;;18.33;60.29
61537;BME280;48695;53.480;-6.300;2023-07-13T08:11:12;100814.69;;;18.36;60.40
61537;BME280;48695;53.480;-6.300;2023-07-13T08:13:38;100826.50;;;18.47;60.22
61537;BME280;48695;53.480;-6.300;2023-07-13T08:16:05;100824.28;;;18.55;59.92
61537;BME280;48695;53.480;-6.300;2023-07-13T08:18:30;100821.38;;;18.59;60.32
61537;BME280;48695;53.480;-6.300;2023-07-13T08:20:56;100828.91;;;18.67;60.01
61537;BME280;48695;53.480;-6.300;2023-07-13T08:23:22;100830.31;;;18.74;59.75
61537;BME280;48695;53.480;-6.300;2023-07-13T08:25:54;100828.97;;;18.83;59.78
61537;BME280;48695;53.480;-6.300;2023-07-13T08:28:23;100838.19;;;18.91;59.14
61537;BME280;48695;53.480;-6.300;2023-07-13T08:30:49;100817.34;;;18.85;58.83
61537;BME280;48695;53.480;-6.300;2023-07-13T08:33:16;100830.59;;;19.01;58.70
61537;BME280;48695;53.480;-6.300;2023-07-13T08:35:41;100835.59;;;19.06;58.76
61537;BME280;48695;53.480;-6.300;2023-07-13T08:38:06;100834.44;;;19.11;58.18
61537;BME280;48695;53.480;-6.300;2023-07-13T08:40:33;100833.25;;;19.17;57.95
61537;BME280;48695;53.480;-6.300;2023-07-13T08:42:59;100830.34;;;19.22;58.52
61537;BME280;48695;53.480;-6.300;2023-07-13T08:53:39;100816.78;;;19.58;57.95
61537;BME280;48695;53.480;-6.300;2023-07-13T08:56:11;100827.72;;;19.67;57.48
61537;BME280;48695;53.480;-6.300;2023-07-13T08:58:41;100821.38;;;19.70;57.29
61537;BME280;48695;53.480;-6.300;2023-07-13T09:01:17;100818.00;;;19.82;57.92
61537;BME280;48695;53.480;-6.300;2023-07-13T09:06:56;100817.84;;;20.00;56.71
61537;BME280;48695;53.480;-6.300;2023-07-13T09:15:31;100824.50;;;20.21;56.25
61537;BME280;48695;53.480;-6.300;2023-07-13T09:18:42;100823.75;;;20.19;56.10
61537;BME280;48695;53.480;-6.300;2023-07-13T09:20:54;100825.28;;;20.23;55.70
61537;BME280;48695;53.480;-6.300;2023-07-13T09:23:23;100808.88;;;20.16;55.58
61537;BME280;48695;53.480;-6.300;2023-07-13T09:25:53;100823.84;;;20.32;54.87
61537;BME280;48695;53.480;-6.300;2023-07-13T09:28:29;100820.72;;;20.39;55.97
61537;BME280;48695;53.480;-6.300;2023-07-13T09:31:06;100811.63;;;20.43;55.38
61537;BME280;48695;53.480;-6.300;2023-07-13T09:33:32;100812.59;;;20.57;55.16
61537;BME280;48695;53.480;-6.300;2023-07-13T09:36:00;100813.16;;;20.76;54.38
61537;BME280;48695;53.480;-6.300;2023-07-13T09:38:29;100789.63;;;20.84;54.29
61537;BME280;48695;53.480;-6.300;2023-07-13T09:43:39;100821.88;;;21.19;53.45
61537;BME280;48695;53.480;-6.300;2023-07-13T09:46:04;100822.31;;;21.26;52.87
61537;BME280;48695;53.480;-6.300;2023-07-13T09:48:35;100823.75;;;21.32;53.24
61537;BME280;48695;53.480;-6.300;2023-07-13T09:51:12;100828.03;;;21.34;53.82
61537;BME280;48695;53.480;-6.300;2023-07-13T09:53:41;100839.78;;;21.30;53.55
61537;BME280;48695;53.480;-6.300;2023-07-13T09:56:19;100825.72;;;21.28;53.88
61537;BME280;48695;53.480;-6.300;2023-07-13T09:58:44;100838.66;;;21.20;53.21
61537;BME280;48695;53.480;-6.300;2023-07-13T10:01:10;100837.16;;;21.16;52.87
61537;BME280;48695;53.480;-6.300;2023-07-13T10:03:36;100838.28;;;21.12;53.71
61537;BME280;48695;53.480;-6.300;2023-07-13T10:06:16;100846.06;;;21.15;53.70
61537;BME280;48695;53.480;-6.300;2023-07-13T10:08:44;100840.53;;;21.18;54.66
61537;BME280;48695;53.480;-6.300;2023-07-13T10:11:17;100829.72;;;21.35;53.86
61537;BME280;48695;53.480;-6.300;2023-07-13T10:13:55;100833.97;;;21.65;54.51
61537;BME280;48695;53.480;-6.300;2023-07-13T10:16:23;100833.25;;;21.88;52.72
61537;BME280;48695;53.480;-6.300;2023-07-13T10:18:53;100836.41;;;22.20;53.12
61537;BME280;48695;53.480;-6.300;2023-07-13T10:21:22;100828.50;;;22.44;52.04
61537;BME280;48695;53.480;-6.300;2023-07-13T10:23:51;100829.50;;;22.80;51.67
61537;BME280;48695;53.480;-6.300;2023-07-13T10:26:25;100840.63;;;23.23;50.57
61537;BME280;48695;53.480;-6.300;2023-07-13T10:28:54;100839.19;;;23.54;50.06
61537;BME280;48695;53.480;-6.300;2023-07-13T10:31:22;100832.75;;;23.81;50.17
61537;BME280;48695;53.480;-6.300;2023-07-13T10:33:48;100826.88;;;24.11;48.83
61537;BME280;48695;53.480;-6.300;2023-07-13T10:36:27;100823.44;;;24.44;49.93
61537;BME280;48695;53.480;-6.300;2023-07-13T10:38:55;100814.56;;;24.66;48.88
61537;BME280;48695;53.480;-6.300;2023-07-13T10:41:24;100835.63;;;25.14;47.79
61537;BME280;48695;53.480;-6.300;2023-07-13T10:43:53;100824.16;;;25.46;46.57
61537;BME280;48695;53.480;-6.300;2023-07-13T10:46:22;100824.63;;;25.72;45.16
61537;BME280;48695;53.480;-6.300;2023-07-13T10:48:52;100825.91;;;25.88;44.81
61537;BME280;48695;53.480;-6.300;2023-07-13T10:51:19;100832.28;;;25.97;45.13
61537;BME280;48695;53.480;-6.300;2023-07-13T10:56:38;100781.38;;;26.08;44.47
61537;BME280;48695;53.480;-6.300;2023-07-13T11:01:46;100832.59;;;26.86;44.15
61537;BME280;48695;53.480;-6.300;2023-07-13T11:04:13;100826.06;;;27.09;41.67
61537;BME280;48695;53.480;-6.300;2023-07-13T11:06:41;100823.69;;;27.35;41.85
61537;BME280;48695;53.480;-6.300;2023-07-13T11:09:20;100817.50;;;27.74;42.35
61537;BME280;48695;53.480;-6.300;2023-07-13T11:11:58;100823.69;;;27.93;38.62
61537;BME280;48695;53.480;-6.300;2023-07-13T11:14:30;100821.47;;;28.26;40.47
61537;BME280;48695;53.480;-6.300;2023-07-13T11:16:56;100822.47;;;28.35;39.83
61537;BME280;48695;53.480;-6.300;2023-07-13T11:24:57;100823.47;;;28.89;40.80
61537;BME280;48695;53.480;-6.300;2023-07-13T11:30:09;100824.94;;;29.29;39.40
61537;BME280;48695;53.480;-6.300;2023-07-13T11:32:39;100822.34;;;29.37;36.91
61537;BME280;48695;53.480;-6.300;2023-07-13T11:35:04;100817.81;;;29.55;37.23
61537;BME280;48695;53.480;-6.300;2023-07-13T11:37:30;100816.75;;;29.66;35.89
61537;BME280;48695;53.480;-6.300;2023-07-13T11:39:56;100817.13;;;29.71;35.62
61537;BME280;48695;53.480;-6.300;2023-07-13T11:42:21;100819.56;;;29.82;36.02
61537;BME280;48695;53.480;-6.300;2023-07-13T11:44:49;100822.19;;;30.00;36.57
61537;BME280;48695;53.480;-6.300;2023-07-13T11:47:21;100815.13;;;30.17;36.43
61537;BME280;48695;53.480;-6.300;2023-07-13T11:49:52;100807.25;;;30.23;35.11
61537;BME280;48695;53.480;-6.300;2023-07-13T11:52:32;100817.91;;;30.33;37.57
61537;BME280;48695;53.480;-6.300;2023-07-13T11:55:01;100805.44;;;30.32;35.17
61537;BME280;48695;53.480;-6.300;2023-07-13T11:57:29;100809.38;;;30.46;34.40
61537;BME280;48695;53.480;-6.300;2023-07-13T11:59:57;100799.00;;;30.59;34.83
61537;BME280;48695;53.480;-6.300;2023-07-13T12:02:31;100808.19;;;30.74;35.45
61537;BME280;48695;53.480;-6.300;2023-07-13T12:04:59;100799.78;;;30.78;34.61
61537;BME280;48695;53.480;-6.300;2023-07-13T12:07:29;100801.16;;;30.90;35.72
61537;BME280;48695;53.480;-6.300;2023-07-13T12:10:23;100796.44;;;31.00;34.42
61537;BME280;48695;53.480;-6.300;2023-07-13T12:12:57;100800.69;;;31.03;34.39
61537;BME280;48695;53.480;-6.300;2023-07-13T12:15:45;100808.72;;;30.86;33.68
61537;BME280;48695;53.480;-6.300;2023-07-13T12:18:18;100808.44;;;30.63;33.13
61537;BME280;48695;53.480;-6.300;2023-07-13T12:20:45;100808.50;;;30.37;32.96
61537;BME280;48695;53.480;-6.300;2023-07-13T12:23:25;100806.50;;;30.13;34.78
61537;BME280;48695;53.480;-6.300;2023-07-13T12:25:52;100799.66;;;29.75;32.63
61537;BME280;48695;53.480;-6.300;2023-07-13T12:28:22;100800.59;;;29.48;33.87
61537;BME280;48695;53.480;-6.300;2023-07-13T12:30:49;100808.34;;;29.15;34.76
61537;BME280;48695;53.480;-6.300;2023-07-13T12:33:16;100806.06;;;28.93;35.25
61537;BME280;48695;53.480;-6.300;2023-07-13T12:35:45;100803.19;;;28.77;35.94
61537;BME280;48695;53.480;-6.300;2023-07-13T12:38:11;100804.41;;;28.64;34.89
61537;BME280;48695;53.480;-6.300;2023-07-13T12:40:37;100806.47;;;28.70;36.00
61537;BME280;48695;53.480;-6.300;2023-07-13T12:43:09;100806.16;;;28.74;35.08
61537;BME280;48695;53.480;-6.300;2023-07-13T12:45:36;100806.56;;;28.79;35.75
61537;BME280;48695;53.480;-6.300;2023-07-13T12:48:13;100801.00;;;28.90;36.89
61537;BME280;48695;53.480;-6.300;2023-07-13T12:50:40;100798.13;;;29.01;37.96
61537;BME280;48695;53.480;-6.300;2023-07-13T12:53:35;100802.19;;;29.05;37.39
61537;BME280;48695;53.480;-6.300;2023-07-13T12:56:04;100798.56;;;29.14;37.95
61537;BME280;48695;53.480;-6.300;2023-07-13T12:58:37;100789.22;;;29.18;36.01
61537;BME280;48695;53.480;-6.300;2023-07-13T13:01:04;100792.28;;;29.24;33.52
61537;BME280;48695;53.480;-6.300;2023-07-13T13:03:34;100784.47;;;29.30;34.08
61537;BME280;48695;53.480;-6.300;2023-07-13T13:06:22;100793.84;;;29.26;33.73
61537;BME280;48695;53.480;-6.300;2023-07-13T13:08:56;100784.16;;;29.15;34.99
61537;BME280;48695;53.480;-6.300;2023-07-13T13:11:28;100782.28;;;28.98;34.36
61537;BME280;48695;53.480;-6.300;2023-07-13T13:13:54;100777.31;;;28.76;33.81
61537;BME280;48695;53.480;-6.300;2023-07-13T13:16:55;100781.91;;;28.65;36.21
61537;BME280;48695;53.480;-6.300;2023-07-13T13:19:23;100783.13;;;28.43;35.26
61537;BME280;48695;53.480;-6.300;2023-07-13T13:21:50;100778.34;;;28.28;35.79
61537;BME280;48695;53.480;-6.300;2023-07-13T13:24:22;100776.97;;;28.24;35.91